createdAt,value
2018-12-29T00:00:57.626Z,28.90
2018-12-29T00:03:30.933Z,28.40
2018-12-29T00:06:04.052Z,31.10
2018-12-29T00:08:36.595Z,29.37
2018-12-29T00:11:09.355Z,27.27
2018-12-29T00:13:42.016Z,28.57
2018-12-29T00:16:15.875Z,27.90
2018-12-29T00:18:48.195Z,30.00
2018-12-29T00:21:20.013Z,29.42
2018-12-29T00:23:53.075Z,30.08
2018-12-29T00:26:25.154Z,28.85
2018-12-29T00:28:57.974Z,29.87
2018-12-29T00:31:31.193Z,28.45
2018-12-29T00:34:04.434Z,27.30
2018-12-29T00:36:37.774Z,28.02
2018-12-29T00:39:10.557Z,28.57
2018-12-29T00:41:43.655Z,26.05
2018-12-29T00:44:16.694Z,26.45
2018-12-29T00:46:50.553Z,27.52
2018-12-29T00:49:22.975Z,28.50
2018-12-29T00:51:56.133Z,28.00
2018-12-29T00:54:28.655Z,24.63
2018-12-29T00:57:01.195Z,27.02
2018-12-29T00:59:34.074Z,26.90
2018-12-29T01:02:08.414Z,31.75
2018-12-29T01:04:41.474Z,27.13
2018-12-29T01:07:14.553Z,25.52
2018-12-29T01:09:47.074Z,26.80
2018-12-29T01:12:20.674Z,27.07
2018-12-29T01:14:53.735Z,26.33
2018-12-29T01:17:25.762Z,26.75
2018-12-29T01:19:57.714Z,26.60
2018-12-29T01:22:30.053Z,27.10
2018-12-29T01:25:02.893Z,27.05
2018-12-29T01:27:35.094Z,25.57
2018-12-29T01:30:08.294Z,26.10
2018-12-29T01:32:41.554Z,27.80
2018-12-29T01:35:13.734Z,26.25
2018-12-29T01:37:47.075Z,27.30
2018-12-29T01:40:19.175Z,27.60
2018-12-29T01:42:52.134Z,26.73
2018-12-29T01:45:24.814Z,27.70
2018-12-29T01:47:57.354Z,27.05
2018-12-29T01:50:29.334Z,29.10
2018-12-29T01:53:01.255Z,25.88
2018-12-29T01:55:33.614Z,27.27
2018-12-29T01:58:06.694Z,28.98
2018-12-29T02:00:39.915Z,26.75
2018-12-29T02:03:13.094Z,26.57
2018-12-29T02:05:46.219Z,26.90
2018-12-29T02:08:19.114Z,28.45
2018-12-29T02:10:51.395Z,26.97
2018-12-29T02:13:24.635Z,28.00
2018-12-29T02:15:58.276Z,26.17
2018-12-29T02:18:31.355Z,28.07
2018-12-29T02:21:03.976Z,25.23
2018-12-29T02:23:36.676Z,24.63
2018-12-29T02:26:08.937Z,27.10
2018-12-29T02:28:41.955Z,25.65
2018-12-29T02:31:14.235Z,26.05
2018-12-29T02:33:47.514Z,25.15
2018-12-29T02:36:20.796Z,22.40
2018-12-29T02:38:53.796Z,24.85
2018-12-29T02:41:26.595Z,24.95
2018-12-29T02:43:59.035Z,24.00
2018-12-29T02:46:30.074Z,24.23
2018-12-29T02:49:02.818Z,24.55
2018-12-29T02:51:35.273Z,23.77
2018-12-29T02:54:08.235Z,24.92
2018-12-29T02:56:40.775Z,24.23
2018-12-29T02:59:13.534Z,24.57
2018-12-29T03:01:46.535Z,26.52
2018-12-29T03:04:20.215Z,22.13
2018-12-29T03:06:53.155Z,22.27
2018-12-29T03:09:25.893Z,22.40
2018-12-29T03:11:57.913Z,22.98
2018-12-29T03:14:31.375Z,25.30
2018-12-29T03:17:03.976Z,23.90
2018-12-29T03:19:35.774Z,24.57
2018-12-29T03:22:08.414Z,23.57
2018-12-29T03:24:41.474Z,25.97
2018-12-29T03:27:13.776Z,24.35
2018-12-29T03:29:46.555Z,24.37
2018-12-29T03:32:19.815Z,24.15
2018-12-29T03:34:53.096Z,22.73
2018-12-29T03:37:26.114Z,22.25
2018-12-29T03:39:58.375Z,22.70
2018-12-29T03:42:31.357Z,23.87
2018-12-29T03:45:05.214Z,24.18
2018-12-29T03:47:38.255Z,24.30
2018-12-29T03:50:11.312Z,24.18
2018-12-29T03:52:42.974Z,25.40
2018-12-29T03:55:15.877Z,25.23
2018-12-29T03:57:48.817Z,25.40
2018-12-29T04:00:21.616Z,25.80
2018-12-29T04:02:54.099Z,25.37
2018-12-29T04:05:27.456Z,27.20
2018-12-29T04:08:00.175Z,26.85
2018-12-29T04:10:33.755Z,24.55
2018-12-29T04:13:07.075Z,27.05
2018-12-29T04:15:39.236Z,24.80
2018-12-29T04:18:11.574Z,25.40
2018-12-29T04:20:44.857Z,25.12
2018-12-29T04:23:17.636Z,25.65
2018-12-29T04:25:50.438Z,28.90
2018-12-29T04:28:23.378Z,24.98
2018-12-29T04:30:57.055Z,26.02
2018-12-29T04:33:30.077Z,26.62
2018-12-29T04:36:02.817Z,27.40
2018-12-29T04:38:35.115Z,25.95
2018-12-29T04:41:07.237Z,26.85
2018-12-29T04:43:39.797Z,25.32
2018-12-29T04:46:12.516Z,24.95
2018-12-29T04:48:45.476Z,27.32
2018-12-29T04:51:18.376Z,27.50
2018-12-29T04:53:50.917Z,26.97
2018-12-29T04:56:24.314Z,25.45
2018-12-29T04:58:57.396Z,25.05
2018-12-29T05:01:30.454Z,25.27
2018-12-29T05:04:02.714Z,26.42
2018-12-29T05:06:35.076Z,26.65
2018-12-29T05:09:09.095Z,26.57
2018-12-29T05:11:42.656Z,24.30
2018-12-29T05:14:15.098Z,25.65
2018-12-29T05:16:48.156Z,24.10
2018-12-29T05:19:20.297Z,25.65
2018-12-29T05:21:53.255Z,23.90
2018-12-29T05:24:26.697Z,22.98
2018-12-29T05:26:59.755Z,23.95
2018-12-29T05:29:32.395Z,25.25
2018-12-29T05:32:05.094Z,24.20
2018-12-29T05:34:38.376Z,24.70
2018-12-29T05:37:11.016Z,23.83
2018-12-29T05:39:43.535Z,22.30
2018-12-29T05:42:15.714Z,23.05
2018-12-29T05:44:47.795Z,23.85
2018-12-29T05:47:20.296Z,22.60
2018-12-29T05:49:53.405Z,23.62
2018-12-29T05:52:26.216Z,21.27
2018-12-29T05:54:58.856Z,22.42
2018-12-29T05:57:30.555Z,23.50
2018-12-29T06:00:03.975Z,22.40
2018-12-29T06:02:36.856Z,22.30
2018-12-29T06:05:10.196Z,22.25
2018-12-29T06:07:42.835Z,22.77
2018-12-29T06:10:15.336Z,22.32
2018-12-29T06:12:48.436Z,21.95
2018-12-29T06:15:21.537Z,22.02
2018-12-29T06:17:53.995Z,22.17
2018-12-29T06:20:26.994Z,21.23
2018-12-29T06:22:59.974Z,20.80
2018-12-29T06:25:33.938Z,20.62
2018-12-29T06:28:06.715Z,21.80
2018-12-29T06:30:39.275Z,22.07
2018-12-29T06:33:12.294Z,20.62
2018-12-29T06:35:45.576Z,21.30
2018-12-29T06:38:18.336Z,20.70
2018-12-29T06:40:50.854Z,20.77
2018-12-29T06:43:23.495Z,22.13
2018-12-29T06:45:56.555Z,21.15
2018-12-29T06:48:28.817Z,20.92
2018-12-29T06:51:01.375Z,21.55
2018-12-29T06:53:33.936Z,20.90
2018-12-29T06:56:06.615Z,20.52
2018-12-29T06:58:39.515Z,21.50
2018-12-29T07:01:12.396Z,21.10
2018-12-29T07:03:46.737Z,22.42
2018-12-29T07:06:19.558Z,21.02
2018-12-29T07:08:52.314Z,19.98
2018-12-29T07:11:25.655Z,21.60
2018-12-29T07:13:57.956Z,21.42
2018-12-29T07:16:30.719Z,20.70
2018-12-29T07:19:03.854Z,22.20
2018-12-29T07:21:36.775Z,22.40
2018-12-29T07:24:08.998Z,23.57
2018-12-29T07:26:42.215Z,22.75
2018-12-29T07:29:15.275Z,21.65
2018-12-29T07:31:48.377Z,21.15
2018-12-29T07:34:21.675Z,20.97
2018-12-29T07:36:54.757Z,21.90
2018-12-29T07:39:27.396Z,20.90
2018-12-29T07:42:00.276Z,21.00
2018-12-29T07:44:33.294Z,20.65
2018-12-29T07:47:06.375Z,21.62
2018-12-29T07:49:38.698Z,24.82
2018-12-29T07:52:12.455Z,23.55
2018-12-29T07:54:44.936Z,22.93
2018-12-29T07:57:18.235Z,24.87
2018-12-29T07:59:51.776Z,25.12
2018-12-29T08:02:24.375Z,24.65
2018-12-29T08:04:56.315Z,28.20
2018-12-29T08:07:29.734Z,29.42
2018-12-29T08:10:02.894Z,25.25
2018-12-29T08:12:35.715Z,24.20
2018-12-29T08:15:09.315Z,26.42
2018-12-29T08:17:42.654Z,26.85
2018-12-29T08:20:14.415Z,25.65
2018-12-29T08:22:47.336Z,24.75
2018-12-29T08:25:20.895Z,24.05
2018-12-29T08:27:54.758Z,26.82
2018-12-29T08:30:27.075Z,27.22
2018-12-29T08:32:59.435Z,25.27
2018-12-29T08:35:32.255Z,24.27
2018-12-29T08:38:04.795Z,23.47
2018-12-29T08:40:37.436Z,22.98
2018-12-29T08:43:10.833Z,24.25
2018-12-29T08:45:43.857Z,24.98
2018-12-29T08:48:16.934Z,25.17
2018-12-29T08:50:49.194Z,23.12
2018-12-29T08:53:21.994Z,24.40
2018-12-29T08:55:55.516Z,22.90
2018-12-29T08:58:28.994Z,25.35
2018-12-29T09:01:02.354Z,24.67
2018-12-29T09:03:34.674Z,23.38
2018-12-29T09:06:07.476Z,23.80
2018-12-29T09:08:40.115Z,24.27
2018-12-29T09:11:12.675Z,23.60
2018-12-29T09:13:44.516Z,23.62
2018-12-29T09:16:17.036Z,24.55
2018-12-29T09:18:50.222Z,24.35
2018-12-29T09:21:22.717Z,24.45
2018-12-29T09:23:55.835Z,25.10
2018-12-29T09:26:27.795Z,25.43
2018-12-29T09:29:00.495Z,26.33
2018-12-29T09:31:33.555Z,25.30
2018-12-29T09:34:07.176Z,26.48
2018-12-29T09:36:40.936Z,25.97
2018-12-29T09:39:14.815Z,24.70
2018-12-29T09:41:47.996Z,24.05
2018-12-29T09:44:20.136Z,26.33
2018-12-29T09:46:52.555Z,23.12
2018-12-29T09:49:24.876Z,25.10
2018-12-29T09:51:57.274Z,24.92
2018-12-29T09:54:30.335Z,24.45
2018-12-29T09:57:02.854Z,24.92
2018-12-29T09:59:35.655Z,25.80
2018-12-29T10:02:08.754Z,24.23
2018-12-29T10:04:41.894Z,24.65
2018-12-29T10:07:14.793Z,22.15
2018-12-29T10:09:47.115Z,27.32
2018-12-29T10:12:19.934Z,25.35
2018-12-29T10:14:53.235Z,23.50
2018-12-29T10:17:26.961Z,24.57
2018-12-29T10:20:00.355Z,24.65
2018-12-29T10:22:32.514Z,24.65
2018-12-29T10:25:04.814Z,28.50
2018-12-29T10:27:37.795Z,24.40
2018-12-29T10:30:10.275Z,24.20
2018-12-29T10:32:42.275Z,24.37
2018-12-29T10:35:14.894Z,26.68
2018-12-29T10:37:48.195Z,24.63
2018-12-29T10:40:20.355Z,23.50
2018-12-29T10:42:53.196Z,22.65
2018-12-29T10:45:26.515Z,24.60
2018-12-29T10:47:59.817Z,22.87
2018-12-29T10:50:32.394Z,23.50
2018-12-29T10:53:05.355Z,23.67
2018-12-29T10:55:38.634Z,25.25
2018-12-29T10:58:11.675Z,24.80
2018-12-29T11:00:44.098Z,25.35
2018-12-29T11:03:16.914Z,24.27
2018-12-29T11:05:50.935Z,23.95
2018-12-29T11:08:23.797Z,23.60
2018-12-29T11:10:57.155Z,23.42
2018-12-29T11:13:30.955Z,27.10
2018-12-29T11:16:02.914Z,22.25
2018-12-29T11:18:35.174Z,23.30
2018-12-29T11:21:08.994Z,25.35
2018-12-29T11:23:41.234Z,26.02
2018-12-29T11:26:14.194Z,25.95
2018-12-29T11:28:47.996Z,27.95
2018-12-29T11:31:20.534Z,35.23
2018-12-29T11:33:52.615Z,24.65
2018-12-29T11:36:25.894Z,29.18
2018-12-29T11:38:59.314Z,26.00
2018-12-29T11:41:32.137Z,25.40
2018-12-29T11:44:04.717Z,24.55
2018-12-29T11:46:38.075Z,24.75
2018-12-29T11:49:17.826Z,24.87
2018-12-29T11:51:44.274Z,24.15
2018-12-29T11:54:16.794Z,24.63
2018-12-29T11:56:49.875Z,27.25
2018-12-29T11:59:22.574Z,26.82
2018-12-29T12:01:55.814Z,25.30
2018-12-29T12:04:28.174Z,27.27
2018-12-29T12:07:01.097Z,25.80
2018-12-29T12:09:34.134Z,27.95
2018-12-29T12:12:06.834Z,26.82
2018-12-29T12:14:40.816Z,25.82
2018-12-29T12:17:14.135Z,25.27
2018-12-29T12:19:47.454Z,26.25
2018-12-29T12:22:19.916Z,24.10
2018-12-29T12:24:52.460Z,26.00
2018-12-29T12:27:24.955Z,26.00
2018-12-29T12:29:58.535Z,23.47
2018-12-29T12:32:31.195Z,26.77
2018-12-29T12:35:04.014Z,26.10
2018-12-29T12:37:36.977Z,24.90
2018-12-29T12:40:09.914Z,24.52
2018-12-29T12:42:43.454Z,25.43
2018-12-29T12:45:15.854Z,26.95
2018-12-29T12:47:48.775Z,23.27
2018-12-29T12:50:21.834Z,25.90
2018-12-29T12:52:54.975Z,24.67
2018-12-29T12:55:27.874Z,26.97
2018-12-29T12:58:00.574Z,23.98
2018-12-29T13:00:33.374Z,25.90
2018-12-29T13:03:06.416Z,25.70
2018-12-29T13:05:39.477Z,29.12
2018-12-29T13:08:12.154Z,24.92
2018-12-29T13:10:44.674Z,25.00
2018-12-29T13:13:17.736Z,26.15
2018-12-29T13:15:51.075Z,26.75
2018-12-29T13:18:24.433Z,24.15
2018-12-29T13:20:57.258Z,51.88
2018-12-29T13:23:29.495Z,25.25
2018-12-29T13:26:02.655Z,24.30
2018-12-29T13:28:35.814Z,25.10
2018-12-29T13:31:08.135Z,26.23
2018-12-29T13:33:41.315Z,26.40
2018-12-29T13:36:14.380Z,36.15
2018-12-29T13:38:47.639Z,24.80
2018-12-29T13:41:20.679Z,25.57
2018-12-29T13:43:53.116Z,27.73
2018-12-29T13:46:25.978Z,25.95
2018-12-29T13:48:59.137Z,24.47
2018-12-29T13:51:31.757Z,24.57
2018-12-29T13:54:04.197Z,24.92
2018-12-29T13:56:36.777Z,26.20
2018-12-29T13:59:10.056Z,23.45
2018-12-29T14:01:43.895Z,23.15
2018-12-29T14:04:17.718Z,26.12
2018-12-29T14:06:50.556Z,23.67
2018-12-29T14:09:22.856Z,25.15
2018-12-29T14:11:56.056Z,23.80
2018-12-29T14:14:29.444Z,28.50
2018-12-29T14:17:03.196Z,25.08
2018-12-29T14:19:36.257Z,25.25
2018-12-29T14:22:08.616Z,26.10
2018-12-29T14:24:41.056Z,23.35
2018-12-29T14:27:14.355Z,26.17
2018-12-29T14:29:47.396Z,22.82
2018-12-29T14:32:20.678Z,28.23
2018-12-29T14:34:53.117Z,24.27
2018-12-29T14:37:25.416Z,24.23
2018-12-29T14:39:59.016Z,23.90
2018-12-29T14:42:32.496Z,25.00
2018-12-29T14:45:06.117Z,23.42
2018-12-29T14:47:38.957Z,24.00
2018-12-29T14:50:12.158Z,25.75
2018-12-29T14:52:45.258Z,23.05
2018-12-29T14:55:17.736Z,28.98
2018-12-29T14:57:50.736Z,23.95
2018-12-29T15:00:23.917Z,23.65
2018-12-29T15:02:56.199Z,23.73
2018-12-29T15:05:28.619Z,27.80
2018-12-29T15:08:01.256Z,27.15
2018-12-29T15:10:34.217Z,23.42
2018-12-29T15:13:07.558Z,24.92
2018-12-29T15:15:39.716Z,24.00
2018-12-29T15:18:13.177Z,24.02
2018-12-29T15:20:46.198Z,24.23
2018-12-29T15:23:19.823Z,24.12
2018-12-29T15:25:52.736Z,23.65
2018-12-29T15:28:26.098Z,22.80
2018-12-29T15:30:58.779Z,23.10
2018-12-29T15:33:31.497Z,22.02
2018-12-29T15:36:04.597Z,23.00
2018-12-29T15:38:38.238Z,23.02
2018-12-29T15:41:11.524Z,22.82
2018-12-29T15:43:43.725Z,23.83
2018-12-29T15:46:16.524Z,23.62
2018-12-29T15:48:51.131Z,23.38
2018-12-29T15:51:24.808Z,23.15
2018-12-29T15:53:58.384Z,22.65
2018-12-29T15:56:32.627Z,22.30
2018-12-29T15:59:05.764Z,23.12
2018-12-29T16:01:39.838Z,23.55
2018-12-29T16:04:12.783Z,25.02
2018-12-29T16:06:45.944Z,26.52
2018-12-29T16:09:19.324Z,24.12
2018-12-29T16:11:53.264Z,24.55
2018-12-29T16:14:25.929Z,23.25
2018-12-29T16:16:59.326Z,23.98
2018-12-29T16:19:32.019Z,23.15
2018-12-29T16:22:05.434Z,24.50
2018-12-29T16:24:39.212Z,22.40
2018-12-29T16:27:12.532Z,21.17
2018-12-29T16:29:45.024Z,22.42
2018-12-29T16:32:17.503Z,23.67
2018-12-29T16:34:50.284Z,22.82
2018-12-29T16:37:22.584Z,23.38
2018-12-29T16:39:55.215Z,20.12
2018-12-29T16:42:28.805Z,21.40
2018-12-29T16:45:02.385Z,23.90
2018-12-29T16:47:35.663Z,22.20
2018-12-29T16:50:08.065Z,23.55
2018-12-29T16:52:40.424Z,22.67
2018-12-29T16:55:12.905Z,20.57
2018-12-29T16:57:44.627Z,23.00
2018-12-29T17:00:18.743Z,23.55
2018-12-29T17:02:51.165Z,20.90
2018-12-29T17:05:25.045Z,20.82
2018-12-29T17:07:59.195Z,20.65
2018-12-29T17:10:31.806Z,21.00
2018-12-29T17:13:03.988Z,19.98
2018-12-29T17:15:37.345Z,20.02
2018-12-29T17:18:11.484Z,20.52
2018-12-29T17:20:44.066Z,23.70
2018-12-29T17:23:16.145Z,19.98
2018-12-29T17:25:50.025Z,18.62
2018-12-29T17:28:23.647Z,20.92
2018-12-29T17:30:56.965Z,21.70
2018-12-29T17:33:28.865Z,20.23
2018-12-29T17:36:01.705Z,19.20
2018-12-29T17:38:34.406Z,18.70
2018-12-29T17:41:07.743Z,19.50
2018-12-29T17:43:40.824Z,19.15
2018-12-29T17:46:13.684Z,19.45
2018-12-29T17:48:46.306Z,20.02
2018-12-29T17:51:18.845Z,20.05
2018-12-29T17:53:51.025Z,23.50
2018-12-29T17:56:24.265Z,19.85
2018-12-29T17:58:57.985Z,19.60
2018-12-29T18:01:31.764Z,22.40
2018-12-29T18:04:05.105Z,22.32
2018-12-29T18:06:38.065Z,21.90
2018-12-29T18:09:10.725Z,19.30
2018-12-29T18:11:44.245Z,20.95
2018-12-29T18:14:17.125Z,21.55
2018-12-29T18:16:49.906Z,19.87
2018-12-29T18:19:30.751Z,20.35
2018-12-29T18:21:57.785Z,20.80
2018-12-29T18:24:30.526Z,19.82
2018-12-29T18:27:03.669Z,18.50
2018-12-29T18:29:36.765Z,19.75
2018-12-29T18:32:09.565Z,22.07
2018-12-29T18:34:42.625Z,20.32
2018-12-29T18:37:15.045Z,20.23
2018-12-29T18:39:47.944Z,20.92
2018-12-29T18:42:20.784Z,20.20
2018-12-29T18:44:54.086Z,19.50
2018-12-29T18:47:26.764Z,23.62
2018-12-29T18:49:59.104Z,19.92
2018-12-29T18:52:32.845Z,18.70
2018-12-29T18:55:05.307Z,19.70
2018-12-29T18:57:38.124Z,19.57
2018-12-29T19:00:10.583Z,20.80
2018-12-29T19:02:43.302Z,19.32
2018-12-29T19:05:16.624Z,21.12
2018-12-29T19:07:48.303Z,20.10
2018-12-29T19:10:21.084Z,20.68
2018-12-29T19:12:54.933Z,21.42
2018-12-29T19:15:28.603Z,22.10
2018-12-29T19:18:01.023Z,21.60
2018-12-29T19:20:33.624Z,21.23
2018-12-29T19:23:06.564Z,21.60
2018-12-29T19:25:39.303Z,20.80
2018-12-29T19:28:13.784Z,21.30
2018-12-29T19:30:46.923Z,20.62
2018-12-29T19:33:20.327Z,21.30
2018-12-29T19:35:53.728Z,21.82
2018-12-29T19:38:27.624Z,20.60
2018-12-29T19:41:00.646Z,21.25
2018-12-29T19:43:33.344Z,22.87
2018-12-29T19:46:06.863Z,22.90
2018-12-29T19:48:39.244Z,22.40
2018-12-29T19:51:12.627Z,23.00
2018-12-29T19:53:45.883Z,20.55
2018-12-29T19:56:19.163Z,21.10
2018-12-29T19:58:51.430Z,21.20
2018-12-29T20:01:24.862Z,21.70
2018-12-29T20:03:58.707Z,24.82
2018-12-29T20:06:31.348Z,23.70
2018-12-29T20:09:05.189Z,40.20
2018-12-29T20:11:37.749Z,24.27
2018-12-29T20:14:10.389Z,23.60
2018-12-29T20:16:42.907Z,24.25
2018-12-29T20:19:16.126Z,25.82
2018-12-29T20:21:47.227Z,24.07
2018-12-29T20:24:19.527Z,23.15
2018-12-29T20:26:52.888Z,23.22
2018-12-29T20:29:25.309Z,23.50
2018-12-29T20:31:57.647Z,23.85
2018-12-29T20:34:30.689Z,22.20
2018-12-29T20:37:04.751Z,23.60
2018-12-29T20:39:37.829Z,21.73
2018-12-29T20:42:10.447Z,22.90
2018-12-29T20:44:43.188Z,24.52
2018-12-29T20:47:16.408Z,25.35
2018-12-29T20:49:49.688Z,23.47
2018-12-29T20:52:23.528Z,23.83
2018-12-29T20:54:55.849Z,25.20
2018-12-29T20:57:28.787Z,27.70
2018-12-29T21:00:02.069Z,26.52
2018-12-29T21:02:35.187Z,26.52
2018-12-29T21:05:09.250Z,26.45
2018-12-29T21:07:42.567Z,27.17
2018-12-29T21:10:15.008Z,27.10
2018-12-29T21:12:47.967Z,28.85
2018-12-29T21:15:20.750Z,27.65
2018-12-29T21:17:54.335Z,30.17
2018-12-29T21:20:28.366Z,26.85
2018-12-29T21:23:01.347Z,31.48
2018-12-29T21:25:33.868Z,27.77
2018-12-29T21:28:06.528Z,27.22
2018-12-29T21:30:39.988Z,25.85
2018-12-29T21:33:13.286Z,26.25
2018-12-29T21:35:46.108Z,25.00
2018-12-29T21:38:19.908Z,27.58
2018-12-29T21:40:53.067Z,28.73
2018-12-29T21:43:24.928Z,27.20
2018-12-29T21:45:58.227Z,26.02
2018-12-29T21:48:31.807Z,28.20
2018-12-29T21:51:04.608Z,28.02
2018-12-29T21:53:37.189Z,29.32
2018-12-29T21:56:09.907Z,28.73
2018-12-29T21:58:43.808Z,29.15
2018-12-29T22:01:16.887Z,27.50
2018-12-29T22:03:50.147Z,29.23
2018-12-29T22:06:23.169Z,27.62
2018-12-29T22:08:56.828Z,29.18
2018-12-29T22:11:29.640Z,25.12
2018-12-29T22:14:02.290Z,25.82
2018-12-29T22:16:35.132Z,27.98
2018-12-29T22:19:08.468Z,25.10
2018-12-29T22:21:42.129Z,29.15
2018-12-29T22:24:16.051Z,26.70
2018-12-29T22:26:49.128Z,26.12
2018-12-29T22:29:23.318Z,30.43
2018-12-29T22:31:55.828Z,27.05
2018-12-29T22:34:28.329Z,27.85
2018-12-29T22:37:01.348Z,27.05
2018-12-29T22:39:34.969Z,28.45
2018-12-29T22:42:07.973Z,25.92
2018-12-29T22:44:41.569Z,26.57
2018-12-29T22:47:13.869Z,27.35
2018-12-29T22:49:46.850Z,28.40
2018-12-29T22:52:19.188Z,28.62
2018-12-29T22:54:52.388Z,27.00
2018-12-29T22:57:25.690Z,27.82
2018-12-29T22:59:59.077Z,26.70
2018-12-29T23:02:33.248Z,26.85
2018-12-29T23:05:06.489Z,27.58
2018-12-29T23:07:39.148Z,29.30
2018-12-29T23:10:11.988Z,28.98
2018-12-29T23:12:44.788Z,26.82
2018-12-29T23:15:17.836Z,28.23
2018-12-29T23:17:50.370Z,30.92
2018-12-29T23:20:22.789Z,27.07
2018-12-29T23:22:55.848Z,27.13
2018-12-29T23:25:29.148Z,25.88
2018-12-29T23:28:01.569Z,27.87
2018-12-29T23:30:34.188Z,28.47
2018-12-29T23:33:07.168Z,28.00
2018-12-29T23:35:39.488Z,28.70
2018-12-29T23:38:12.768Z,27.55
2018-12-29T23:40:45.228Z,27.15
2018-12-29T23:43:17.969Z,27.17
2018-12-29T23:45:50.349Z,28.40
2018-12-29T23:48:23.508Z,27.02
2018-12-29T23:51:05.131Z,29.00
2018-12-29T23:53:31.572Z,29.48
2018-12-29T23:56:04.448Z,27.27
2018-12-29T23:58:37.489Z,29.32
